sensor_id;sensor_type;location;lat;lon;timestamp;pressure;altitude;pressure_sealevel;temperature;humidity
69257;BME280;56376;53.356;-1.748;2022-11-21T00:00:14;98489.91;;;4.54;100.00
69257;BME280;56376;53.356;-1.748;2022-11-21T00:02:40;98472.78;;;4.48;100.00
69257;BME280;56376;53.356;-1.748;2022-11-21T00:05:06;98481.38;;;4.50;100.00
69257;BME280;56376;53.356;-1.748;2022-11-21T00:07:31;98477.84;;;4.53;100.00
69257;BME280;56376;53.356;-1.748;2022-11-21T00:09:56;98474.50;;;4.49;100.00
69257;BME280;56376;53.356;-1.748;2022-11-21T00:12:22;98474.59;;;4.46;100.00
69257;BME280;56376;53.356;-1.748;2022-11-21T00:14:47;98466.03;;;4.44;100.00
69257;BME280;56376;53.356;-1.748;2022-11-21T00:17:13;98464.31;;;4.43;100.00
69257;BME280;56376;53.356;-1.748;2022-11-21T00:19:38;98455.78;;;4.41;100.00
69257;BME280;56376;53.356;-1.748;2022-11-21T00:22:04;98455.81;;;4.40;100.00
69257;BME280;56376;53.356;-1.748;2022-11-21T00:24:29;98454.16;;;4.37;100.00
69257;BME280;56376;53.356;-1.748;2022-11-21T00:26:54;98450.84;;;4.33;100.00
69257;BME280;56376;53.356;-1.748;2022-11-21T00:29:20;98459.47;;;4.32;100.00
69257;BME280;56376;53.356;-1.748;2022-11-21T00:31:45;98447.53;;;4.28;100.00
69257;BME280;56376;53.356;-1.748;2022-11-21T00:34:11;98445.88;;;4.26;100.00
69257;BME280;56376;53.356;-1.748;2022-11-21T00:36:36;98446.78;;;4.23;100.00
69257;BME280;56376;53.356;-1.748;2022-11-21T00:39:01;98446.03;;;4.20;100.00
69257;BME280;56376;53.356;-1.748;2022-11-21T00:41:27;98438.41;;;4.15;100.00
69257;BME280;56376;53.356;-1.748;2022-11-21T00:43:52;98428.19;;;4.10;100.00
69257;BME280;56376;53.356;-1.748;2022-11-21T00:46:18;98427.41;;;4.08;100.00
69257;BME280;56376;53.356;-1.748;2022-11-21T00:48:43;98422.41;;;4.02;100.00
69257;BME280;56376;53.356;-1.748;2022-11-21T00:51:08;98431.16;;;3.97;100.00
69257;BME280;56376;53.356;-1.748;2022-11-21T00:53:34;98429.63;;;3.89;100.00
69257;BME280;56376;53.356;-1.748;2022-11-21T00:55:59;98433.16;;;3.87;100.00
69257;BME280;56376;53.356;-1.748;2022-11-21T00:58:25;98434.91;;;3.85;100.00
69257;BME280;56376;53.356;-1.748;2022-11-21T01:00:51;98427.16;;;3.85;100.00
69257;BME280;56376;53.356;-1.748;2022-11-21T01:03:16;98415.09;;;3.85;100.00
69257;BME280;56376;53.356;-1.748;2022-11-21T01:05:42;98404.75;;;3.85;100.00
69257;BME280;56376;53.356;-1.748;2022-11-21T01:08:07;98412.47;;;3.87;100.00
69257;BME280;56376;53.356;-1.748;2022-11-21T01:10:34;98402.34;;;3.79;100.00
69257;BME280;56376;53.356;-1.748;2022-11-21T01:12:59;98398.09;;;3.78;100.00
69257;BME280;56376;53.356;-1.748;2022-11-21T01:15:25;98398.16;;;3.75;100.00
69257;BME280;56376;53.356;-1.748;2022-11-21T01:17:50;98404.25;;;3.73;100.00
69257;BME280;56376;53.356;-1.748;2022-11-21T01:20:16;98403.41;;;3.72;100.00
69257;BME280;56376;53.356;-1.748;2022-11-21T01:22:41;98398.34;;;3.67;100.00
69257;BME280;56376;53.356;-1.748;2022-11-21T01:25:07;98399.34;;;3.63;100.00
69257;BME280;56376;53.356;-1.748;2022-11-21T01:27:32;98392.53;;;3.61;100.00
69257;BME280;56376;53.356;-1.748;2022-11-21T01:29:58;98394.38;;;3.56;100.00
69257;BME280;56376;53.356;-1.748;2022-11-21T01:32:23;98403.97;;;3.51;100.00
69257;BME280;56376;53.356;-1.748;2022-11-21T01:34:48;98401.44;;;3.47;100.00
69257;BME280;56376;53.356;-1.748;2022-11-21T01:37:14;98407.69;;;3.40;100.00
69257;BME280;56376;53.356;-1.748;2022-11-21T01:39:39;98409.44;;;3.38;100.00
69257;BME280;56376;53.356;-1.748;2022-11-21T01:42:04;98412.13;;;3.34;100.00
69257;BME280;56376;53.356;-1.748;2022-11-21T01:44:46;98407.09;;;3.29;100.00
69257;BME280;56376;53.356;-1.748;2022-11-21T01:47:13;98408.03;;;3.25;100.00
69257;BME280;56376;53.356;-1.748;2022-11-21T01:49:39;98414.19;;;3.19;100.00
69257;BME280;56376;53.356;-1.748;2022-11-21T01:52:17;98403.97;;;3.15;100.00
69257;BME280;56376;53.356;-1.748;2022-11-21T01:57:22;98390.34;;;3.10;100.00
69257;BME280;56376;53.356;-1.748;2022-11-21T01:59:59;98381.84;;;3.06;100.00
69257;BME280;56376;53.356;-1.748;2022-11-21T02:02:30;98381.88;;;3.04;100.00
69257;BME280;56376;53.356;-1.748;2022-11-21T02:04:59;98378.53;;;3.01;100.00
69257;BME280;56376;53.356;-1.748;2022-11-21T02:07:26;98382.97;;;2.96;100.00
69257;BME280;56376;53.356;-1.748;2022-11-21T02:09:55;98389.03;;;2.93;100.00
69257;BME280;56376;53.356;-1.748;2022-11-21T02:12:33;98391.63;;;2.92;100.00
69257;BME280;56376;53.356;-1.748;2022-11-21T02:15:02;98386.59;;;2.87;100.00
69257;BME280;56376;53.356;-1.748;2022-11-21T02:17:32;98385.84;;;2.82;100.00
69257;BME280;56376;53.356;-1.748;2022-11-21T02:20:00;98381.59;;;2.81;100.00
69257;BME280;56376;53.356;-1.748;2022-11-21T02:27:28;98350.91;;;2.70;100.00
69257;BME280;56376;53.356;-1.748;2022-11-21T02:29:53;98348.34;;;2.69;100.00
69257;BME280;56376;53.356;-1.748;2022-11-21T02:32:24;98345.88;;;2.64;100.00
69257;BME280;56376;53.356;-1.748;2022-11-21T02:34:50;98338.22;;;2.61;100.00
69257;BME280;56376;53.356;-1.748;2022-11-21T02:37:15;98344.25;;;2.60;100.00
69257;BME280;56376;53.356;-1.748;2022-11-21T02:39:42;98358.06;;;2.57;100.00
69257;BME280;56376;53.356;-1.748;2022-11-21T02:42:23;98359.81;;;2.55;100.00
69257;BME280;56376;53.356;-1.748;2022-11-21T02:45:01;98359.91;;;2.52;100.00
69257;BME280;56376;53.356;-1.748;2022-11-21T02:47:30;98354.88;;;2.46;100.00
69257;BME280;56376;53.356;-1.748;2022-11-21T02:50:02;98353.19;;;2.44;100.00
69257;BME280;56376;53.356;-1.748;2022-11-21T02:52:31;98355.00;;;2.40;100.00
69257;BME280;56376;53.356;-1.748;2022-11-21T02:54:57;98351.69;;;2.35;100.00
69257;BME280;56376;53.356;-1.748;2022-11-21T02:57:22;98345.69;;;2.34;100.00
69257;BME280;56376;53.356;-1.748;2022-11-21T02:59:47;98338.88;;;2.32;100.00
69257;BME280;56376;53.356;-1.748;2022-11-21T03:02:13;98327.69;;;2.33;100.00
69257;BME280;56376;53.356;-1.748;2022-11-21T03:04:38;98330.25;;;2.33;100.00
69257;BME280;56376;53.356;-1.748;2022-11-21T03:07:04;98327.75;;;2.30;100.00
69257;BME280;56376;53.356;-1.748;2022-11-21T03:09:29;98310.56;;;2.29;100.00
69257;BME280;56376;53.356;-1.748;2022-11-21T03:11:54;98301.16;;;2.28;100.00
69257;BME280;56376;53.356;-1.748;2022-11-21T03:14:20;98292.63;;;2.24;100.00
69257;BME280;56376;53.356;-1.748;2022-11-21T03:16:45;98282.38;;;2.23;100.00
69257;BME280;56376;53.356;-1.748;2022-11-21T03:19:10;98278.09;;;2.22;100.00
69257;BME280;56376;53.356;-1.748;2022-11-21T03:21:36;98263.53;;;2.21;100.00
69257;BME280;56376;53.356;-1.748;2022-11-21T03:24:01;98277.31;;;2.20;100.00
69257;BME280;56376;53.356;-1.748;2022-11-21T03:26:27;98268.75;;;2.17;100.00
69257;BME280;56376;53.356;-1.748;2022-11-21T03:28:52;98266.22;;;2.16;100.00
69257;BME280;56376;53.356;-1.748;2022-11-21T03:31:17;98263.69;;;2.14;100.00
69257;BME280;56376;53.356;-1.748;2022-11-21T03:33:43;98255.09;;;2.14;100.00
69257;BME280;56376;53.356;-1.748;2022-11-21T03:36:08;98248.28;;;2.11;100.00
69257;BME280;56376;53.356;-1.748;2022-11-21T03:38:33;98244.00;;;2.10;100.00
69257;BME280;56376;53.356;-1.748;2022-11-21T03:41:05;98257.72;;;2.12;100.00
69257;BME280;56376;53.356;-1.748;2022-11-21T03:43:51;98265.47;;;2.11;100.00
69257;BME280;56376;53.356;-1.748;2022-11-21T03:46:16;98257.00;;;2.06;100.00
69257;BME280;56376;53.356;-1.748;2022-11-21T03:48:41;98245.03;;;2.03;100.00
69257;BME280;56376;53.356;-1.748;2022-11-21T03:51:07;98233.91;;;2.01;100.00
69257;BME280;56376;53.356;-1.748;2022-11-21T03:53:32;98227.97;;;1.99;100.00
69257;BME280;56376;53.356;-1.748;2022-11-21T03:55:57;98207.41;;;1.96;100.00
69257;BME280;56376;53.356;-1.748;2022-11-21T03:58:23;98203.06;;;1.98;100.00
69257;BME280;56376;53.356;-1.748;2022-11-21T04:00:48;98203.06;;;1.98;100.00
69257;BME280;56376;53.356;-1.748;2022-11-21T04:03:13;98192.94;;;1.92;100.00
69257;BME280;56376;53.356;-1.748;2022-11-21T04:05:39;98188.63;;;1.92;100.00
69257;BME280;56376;53.356;-1.748;2022-11-21T04:08:04;98191.28;;;1.89;100.00
69257;BME280;56376;53.356;-1.748;2022-11-21T04:10:29;98187.81;;;1.89;100.00
69257;BME280;56376;53.356;-1.748;2022-11-21T04:12:55;98173.34;;;1.85;100.00
69257;BME280;56376;53.356;-1.748;2022-11-21T04:15:20;98174.22;;;1.84;100.00
69257;BME280;56376;53.356;-1.748;2022-11-21T04:17:45;98169.13;;;1.81;100.00
69257;BME280;56376;53.356;-1.748;2022-11-21T04:20:11;98159.75;;;1.78;100.00
69257;BME280;56376;53.356;-1.748;2022-11-21T04:22:36;98157.22;;;1.77;100.00
69257;BME280;56376;53.356;-1.748;2022-11-21T04:25:02;98143.53;;;1.75;100.00
69257;BME280;56376;53.356;-1.748;2022-11-21T04:27:27;98157.34;;;1.72;100.00
69257;BME280;56376;53.356;-1.748;2022-11-21T04:29:52;98151.34;;;1.71;100.00
69257;BME280;56376;53.356;-1.748;2022-11-21T04:32:18;98142.72;;;1.72;100.00
69257;BME280;56376;53.356;-1.748;2022-11-21T04:34:43;98143.53;;;1.75;100.00
69257;BME280;56376;53.356;-1.748;2022-11-21T04:37:08;98146.94;;;1.77;100.00
69257;BME280;56376;53.356;-1.748;2022-11-21T04:39:34;98138.31;;;1.78;100.00
69257;BME280;56376;53.356;-1.748;2022-11-21T04:41:59;98129.78;;;1.76;100.00
69257;BME280;56376;53.356;-1.748;2022-11-21T04:44:25;98132.34;;;1.77;100.00
69257;BME280;56376;53.356;-1.748;2022-11-21T04:46:50;98127.19;;;1.77;100.00
69257;BME280;56376;53.356;-1.748;2022-11-21T04:49:17;98133.19;;;1.76;100.00
69257;BME280;56376;53.356;-1.748;2022-11-21T04:51:42;98115.22;;;1.75;100.00
69257;BME280;56376;53.356;-1.748;2022-11-21T04:54:09;98116.09;;;1.73;100.00
69257;BME280;56376;53.356;-1.748;2022-11-21T04:56:35;98117.94;;;1.68;100.00
69257;BME280;56376;53.356;-1.748;2022-11-21T04:59:01;98111.22;;;1.61;100.00
69257;BME280;56376;53.356;-1.748;2022-11-21T05:01:26;98106.16;;;1.58;100.00
69257;BME280;56376;53.356;-1.748;2022-11-21T05:03:52;98107.06;;;1.56;100.00
69257;BME280;56376;53.356;-1.748;2022-11-21T05:06:17;98090.75;;;1.57;100.00
69257;BME280;56376;53.356;-1.748;2022-11-21T05:08:43;98083.88;;;1.57;100.00
69257;BME280;56376;53.356;-1.748;2022-11-21T05:11:08;98077.91;;;1.55;100.00
69257;BME280;56376;53.356;-1.748;2022-11-21T05:13:53;98080.50;;;1.54;100.00
69257;BME280;56376;53.356;-1.748;2022-11-21T05:16:18;98069.44;;;1.51;100.00
69257;BME280;56376;53.356;-1.748;2022-11-21T05:18:44;98063.50;;;1.48;100.00
69257;BME280;56376;53.356;-1.748;2022-11-21T05:21:09;98066.13;;;1.46;100.00
69257;BME280;56376;53.356;-1.748;2022-11-21T05:23:34;98070.53;;;1.41;100.00
69257;BME280;56376;53.356;-1.748;2022-11-21T05:26:00;98062.09;;;1.35;100.00
69257;BME280;56376;53.356;-1.748;2022-11-21T05:28:25;98060.47;;;1.30;100.00
69257;BME280;56376;53.356;-1.748;2022-11-21T05:30:51;98060.47;;;1.30;100.00
69257;BME280;56376;53.356;-1.748;2022-11-21T05:33:16;98058.78;;;1.29;100.00
69257;BME280;56376;53.356;-1.748;2022-11-21T05:35:41;98045.03;;;1.30;100.00
69257;BME280;56376;53.356;-1.748;2022-11-21T05:38:07;98035.59;;;1.31;100.00
69257;BME280;56376;53.356;-1.748;2022-11-21T05:40:32;98025.31;;;1.31;100.00
69257;BME280;56376;53.356;-1.748;2022-11-21T05:42:57;98013.31;;;1.30;100.00
69257;BME280;56376;53.356;-1.748;2022-11-21T05:45:41;98001.25;;;1.32;100.00
69257;BME280;56376;53.356;-1.748;2022-11-21T05:48:07;97999.53;;;1.33;100.00
69257;BME280;56376;53.356;-1.748;2022-11-21T05:50:34;97992.72;;;1.32;100.00
69257;BME280;56376;53.356;-1.748;2022-11-21T05:53:03;97986.75;;;1.29;100.00
69257;BME280;56376;53.356;-1.748;2022-11-21T05:55:29;97974.81;;;1.25;100.00
69257;BME280;56376;53.356;-1.748;2022-11-21T05:57:58;97971.31;;;1.29;100.00
69257;BME280;56376;53.356;-1.748;2022-11-21T06:00:24;97955.03;;;1.29;100.00
69257;BME280;56376;53.356;-1.748;2022-11-21T06:02:50;97947.38;;;1.26;100.00
69257;BME280;56376;53.356;-1.748;2022-11-21T06:05:34;97955.03;;;1.29;100.00
69257;BME280;56376;53.356;-1.748;2022-11-21T06:07:59;97943.84;;;1.32;100.00
69257;BME280;56376;53.356;-1.748;2022-11-21T06:10:24;97942.94;;;1.33;100.00
69257;BME280;56376;53.356;-1.748;2022-11-21T06:12:50;97930.13;;;1.31;100.00
69257;BME280;56376;53.356;-1.748;2022-11-21T06:15:15;97936.13;;;1.32;100.00
69257;BME280;56376;53.356;-1.748;2022-11-21T06:17:41;97936.13;;;1.32;100.00
69257;BME280;56376;53.356;-1.748;2022-11-21T06:20:07;97911.34;;;1.27;100.00
69257;BME280;56376;53.356;-1.748;2022-11-21T06:22:32;97913.00;;;1.28;100.00
69257;BME280;56376;53.356;-1.748;2022-11-21T06:24:57;97918.97;;;1.30;100.00
69257;BME280;56376;53.356;-1.748;2022-11-21T06:27:23;97914.72;;;1.29;100.00
69257;BME280;56376;53.356;-1.748;2022-11-21T06:29:48;97916.44;;;1.29;100.00
69257;BME280;56376;53.356;-1.748;2022-11-21T06:32:13;97901.03;;;1.27;100.00
69257;BME280;56376;53.356;-1.748;2022-11-21T06:34:39;97887.28;;;1.28;100.00
69257;BME280;56376;53.356;-1.748;2022-11-21T06:37:04;97881.28;;;1.29;100.00
69257;BME280;56376;53.356;-1.748;2022-11-21T06:39:30;97880.38;;;1.30;100.00
69257;BME280;56376;53.356;-1.748;2022-11-21T06:41:55;97864.09;;;1.30;100.00
69257;BME280;56376;53.356;-1.748;2022-11-21T06:44:20;97855.44;;;1.34;100.00
69257;BME280;56376;53.356;-1.748;2022-11-21T06:46:46;97851.13;;;1.35;100.00
69257;BME280;56376;53.356;-1.748;2022-11-21T06:49:11;97846.81;;;1.35;100.00
69257;BME280;56376;53.356;-1.748;2022-11-21T06:51:37;97844.16;;;1.38;100.00
69257;BME280;56376;53.356;-1.748;2022-11-21T06:54:02;97836.41;;;1.40;100.00
69257;BME280;56376;53.356;-1.748;2022-11-21T06:56:29;97840.66;;;1.41;100.00
69257;BME280;56376;53.356;-1.748;2022-11-21T06:58:55;97826.09;;;1.41;100.00
69257;BME280;56376;53.356;-1.748;2022-11-21T07:01:21;97827.75;;;1.44;100.00
69257;BME280;56376;53.356;-1.748;2022-11-21T07:03:47;97827.69;;;1.45;100.00
69257;BME280;56376;53.356;-1.748;2022-11-21T07:06:12;97814.09;;;1.40;100.00
69257;BME280;56376;53.356;-1.748;2022-11-21T07:08:38;97817.44;;;1.44;100.00
69257;BME280;56376;53.356;-1.748;2022-11-21T07:11:10;97813.19;;;1.43;100.00
69257;BME280;56376;53.356;-1.748;2022-11-21T07:13:36;97819.09;;;1.46;100.00
69257;BME280;56376;53.356;-1.748;2022-11-21T07:16:04;97809.66;;;1.47;100.00
69257;BME280;56376;53.356;-1.748;2022-11-21T07:18:30;97791.66;;;1.45;100.00
69257;BME280;56376;53.356;-1.748;2022-11-21T07:20:59;97784.84;;;1.44;100.00
69257;BME280;56376;53.356;-1.748;2022-11-21T07:23:26;97788.25;;;1.45;100.00
69257;BME280;56376;53.356;-1.748;2022-11-21T07:25:51;97781.34;;;1.47;100.00
69257;BME280;56376;53.356;-1.748;2022-11-21T07:28:17;97772.78;;;1.46;100.00
69257;BME280;56376;53.356;-1.748;2022-11-21T07:30:42;97766.72;;;1.49;100.00
69257;BME280;56376;53.356;-1.748;2022-11-21T07:33:08;97762.31;;;1.52;100.00
69257;BME280;56376;53.356;-1.748;2022-11-21T07:35:34;97754.56;;;1.54;100.00
69257;BME280;56376;53.356;-1.748;2022-11-21T07:38:01;97743.34;;;1.57;100.00
69257;BME280;56376;53.356;-1.748;2022-11-21T07:40:26;97746.66;;;1.60;100.00
69257;BME280;56376;53.356;-1.748;2022-11-21T07:42:52;97741.63;;;1.56;100.00
69257;BME280;56376;53.356;-1.748;2022-11-21T07:45:17;97743.38;;;1.55;100.00
69257;BME280;56376;53.356;-1.748;2022-11-21T07:47:43;97756.09;;;1.60;100.00
69257;BME280;56376;53.356;-1.748;2022-11-21T07:50:09;97760.44;;;1.58;100.00
69257;BME280;56376;53.356;-1.748;2022-11-21T07:52:35;97755.34;;;1.56;100.00
69257;BME280;56376;53.356;-1.748;2022-11-21T07:55:01;97746.75;;;1.57;100.00
69257;BME280;56376;53.356;-1.748;2022-11-21T07:57:28;97734.72;;;1.58;100.00
69257;BME280;56376;53.356;-1.748;2022-11-21T07:59:53;97722.78;;;1.55;100.00
69257;BME280;56376;53.356;-1.748;2022-11-21T08:02:24;97716.78;;;1.55;100.00
69257;BME280;56376;53.356;-1.748;2022-11-21T08:04:50;97718.44;;;1.57;100.00
69257;BME280;56376;53.356;-1.748;2022-11-21T08:07:16;97713.19;;;1.60;100.00
69257;BME280;56376;53.356;-1.748;2022-11-21T08:09:42;97707.94;;;1.63;100.00
69257;BME280;56376;53.356;-1.748;2022-11-21T08:12:08;97707.94;;;1.63;100.00
69257;BME280;56376;53.356;-1.748;2022-11-21T08:14:34;97712.13;;;1.67;100.00
69257;BME280;56376;53.356;-1.748;2022-11-21T08:17:00;97699.25;;;1.67;100.00
69257;BME280;56376;53.356;-1.748;2022-11-21T08:19:25;97694.16;;;1.66;100.00
69257;BME280;56376;53.356;-1.748;2022-11-21T08:21:51;97693.28;;;1.67;100.00
69257;BME280;56376;53.356;-1.748;2022-11-21T08:24:16;97689.81;;;1.68;100.00
69257;BME280;56376;53.356;-1.748;2022-11-21T08:26:43;97676.91;;;1.69;100.00
69257;BME280;56376;53.356;-1.748;2022-11-21T08:29:09;97667.41;;;1.71;100.00
69257;BME280;56376;53.356;-1.748;2022-11-21T08:31:36;97671.66;;;1.72;100.00
69257;BME280;56376;53.356;-1.748;2022-11-21T08:34:01;97670.75;;;1.73;100.00
69257;BME280;56376;53.356;-1.748;2022-11-21T08:36:26;97664.72;;;1.75;100.00
69257;BME280;56376;53.356;-1.748;2022-11-21T08:38:52;97667.16;;;1.79;100.00
69257;BME280;56376;53.356;-1.748;2022-11-21T08:41:17;97658.50;;;1.82;100.00
69257;BME280;56376;53.356;-1.748;2022-11-21T08:44:01;97654.13;;;1.84;100.00
69257;BME280;56376;53.356;-1.748;2022-11-21T08:46:27;97655.84;;;1.85;100.00
69257;BME280;56376;53.356;-1.748;2022-11-21T08:48:53;97651.50;;;1.85;100.00
69257;BME280;56376;53.356;-1.748;2022-11-21T08:51:19;97643.75;;;1.87;100.00
69257;BME280;56376;53.356;-1.748;2022-11-21T08:53:44;97641.13;;;1.88;100.00
69257;BME280;56376;53.356;-1.748;2022-11-21T08:56:10;97634.19;;;1.90;100.00
69257;BME280;56376;53.356;-1.748;2022-11-21T08:58:35;97630.69;;;1.93;100.00
69257;BME280;56376;53.356;-1.748;2022-11-21T09:01:01;97622.91;;;1.94;100.00
69257;BME280;56376;53.356;-1.748;2022-11-21T09:03:27;97603.94;;;1.97;100.00
69257;BME280;56376;53.356;-1.748;2022-11-21T09:05:55;97595.53;;;1.92;100.00
69257;BME280;56376;53.356;-1.748;2022-11-21T09:08:21;97592.06;;;1.93;100.00
69257;BME280;56376;53.356;-1.748;2022-11-21T09:10:46;97582.59;;;1.93;100.00
69257;BME280;56376;53.356;-1.748;2022-11-21T09:13:11;97576.59;;;1.93;100.00
69257;BME280;56376;53.356;-1.748;2022-11-21T09:15:37;97572.94;;;2.00;100.00
69257;BME280;56376;53.356;-1.748;2022-11-21T09:18:21;97569.47;;;2.01;100.00
69257;BME280;56376;53.356;-1.748;2022-11-21T09:20:46;97563.31;;;2.05;100.00
69257;BME280;56376;53.356;-1.748;2022-11-21T09:23:13;97558.97;;;2.07;100.00
69257;BME280;56376;53.356;-1.748;2022-11-21T09:25:40;97553.59;;;2.13;100.00
69257;BME280;56376;53.356;-1.748;2022-11-21T09:28:07;97544.06;;;2.17;100.00
69257;BME280;56376;53.356;-1.748;2022-11-21T09:30:34;97532.81;;;2.20;100.00
69257;BME280;56376;53.356;-1.748;2022-11-21T09:33:00;97534.34;;;2.24;100.00
69257;BME280;56376;53.356;-1.748;2022-11-21T09:35:26;97530.69;;;2.31;100.00
69257;BME280;56376;53.356;-1.748;2022-11-21T09:37:51;97515.09;;;2.34;100.00
69257;BME280;56376;53.356;-1.748;2022-11-21T09:40:17;97517.41;;;2.42;100.00
69257;BME280;56376;53.356;-1.748;2022-11-21T09:47:55;97504.75;;;2.59;100.00
69257;BME280;56376;53.356;-1.748;2022-11-21T09:50:31;97497.69;;;2.64;100.00
69257;BME280;56376;53.356;-1.748;2022-11-21T09:53:04;97478.50;;;2.73;100.00
69257;BME280;56376;53.356;-1.748;2022-11-21T09:58:02;97454.81;;;2.85;100.00
69257;BME280;56376;53.356;-1.748;2022-11-21T10:00:29;97444.44;;;2.87;100.00
69257;BME280;56376;53.356;-1.748;2022-11-21T10:02:55;97435.56;;;2.94;100.00
69257;BME280;56376;53.356;-1.748;2022-11-21T10:05:44;97424.28;;;2.96;100.00
69257;BME280;56376;53.356;-1.748;2022-11-21T10:11:19;97415.28;;;3.07;100.00
69257;BME280;56376;53.356;-1.748;2022-11-21T10:14:16;97411.69;;;3.11;100.00
69257;BME280;56376;53.356;-1.748;2022-11-21T10:19:28;97398.41;;;3.20;100.00
69257;BME280;56376;53.356;-1.748;2022-11-21T10:22:49;97387.06;;;3.24;100.00
69257;BME280;56376;53.356;-1.748;2022-11-21T10:24:55;97362.84;;;3.28;100.00
69257;BME280;56376;53.356;-1.748;2022-11-21T10:30:22;97359.94;;;3.36;100.00
69257;BME280;56376;53.356;-1.748;2022-11-21T10:32:54;97345.97;;;3.40;100.00
69257;BME280;56376;53.356;-1.748;2022-11-21T10:35:24;97348.44;;;3.43;100.00
69257;BME280;56376;53.356;-1.748;2022-11-21T10:38:00;97336.25;;;3.46;100.00
69257;BME280;56376;53.356;-1.748;2022-11-21T10:40:38;97331.78;;;3.50;100.00
69257;BME280;56376;53.356;-1.748;2022-11-21T10:46:05;97316.88;;;3.57;100.00
69257;BME280;56376;53.356;-1.748;2022-11-21T10:48:30;97298.66;;;3.60;100.00
69257;BME280;56376;53.356;-1.748;2022-11-21T10:53:36;97284.72;;;3.64;100.00
69257;BME280;56376;53.356;-1.748;2022-11-21T10:56:21;97282.00;;;3.67;100.00
69257;BME280;56376;53.356;-1.748;2022-11-21T10:58:53;97267.13;;;3.72;100.00
69257;BME280;56376;53.356;-1.748;2022-11-21T11:01:31;97261.16;;;3.72;100.00
69257;BME280;56376;53.356;-1.748;2022-11-21T11:06:35;97251.50;;;3.75;100.00
69257;BME280;56376;53.356;-1.748;2022-11-21T11:09:02;97251.44;;;3.77;100.00
69257;BME280;56376;53.356;-1.748;2022-11-21T11:11:28;97241.94;;;3.77;100.00
69257;BME280;56376;53.356;-1.748;2022-11-21T11:16:23;97222.00;;;3.81;100.00
69257;BME280;56376;53.356;-1.748;2022-11-21T11:19:20;97219.41;;;3.81;100.00
69257;BME280;56376;53.356;-1.748;2022-11-21T11:21:48;97200.47;;;3.80;100.00
69257;BME280;56376;53.356;-1.748;2022-11-21T11:27:00;97184.78;;;3.85;100.00
69257;BME280;56376;53.356;-1.748;2022-11-21T11:29:31;97189.88;;;3.86;100.00
69257;BME280;56376;53.356;-1.748;2022-11-21T11:32:01;97181.22;;;3.87;100.00
69257;BME280;56376;53.356;-1.748;2022-11-21T11:38:16;97168.03;;;3.94;100.00
69257;BME280;56376;53.356;-1.748;2022-11-21T11:40:41;97151.72;;;3.93;100.00
69257;BME280;56376;53.356;-1.748;2022-11-21T11:43:37;97143.97;;;3.93;100.00
69257;BME280;56376;53.356;-1.748;2022-11-21T11:49:41;97134.91;;;4.02;100.00
69257;BME280;56376;53.356;-1.748;2022-11-21T11:52:31;97142.50;;;4.05;100.00
69257;BME280;56376;53.356;-1.748;2022-11-21T11:55:02;97135.47;;;4.08;100.00
69257;BME280;56376;53.356;-1.748;2022-11-21T11:57:31;97124.44;;;4.05;100.00
69257;BME280;56376;53.356;-1.748;2022-11-21T12:00:28;97115.03;;;4.04;100.00
69257;BME280;56376;53.356;-1.748;2022-11-21T12:03:30;97110.69;;;4.04;100.00
69257;BME280;56376;53.356;-1.748;2022-11-21T12:06:15;97118.44;;;4.04;100.00
69257;BME280;56376;53.356;-1.748;2022-11-21T12:11:27;97091.63;;;4.07;100.00
69257;BME280;56376;53.356;-1.748;2022-11-21T12:14:32;97079.47;;;4.09;100.00
69257;BME280;56376;53.356;-1.748;2022-11-21T12:17:22;97071.63;;;4.10;100.00
69257;BME280;56376;53.356;-1.748;2022-11-21T12:19:51;97079.31;;;4.12;100.00
69257;BME280;56376;53.356;-1.748;2022-11-21T12:22:17;97079.25;;;4.14;100.00
69257;BME280;56376;53.356;-1.748;2022-11-21T12:24:43;97074.91;;;4.14;100.00
69257;BME280;56376;53.356;-1.748;2022-11-21T12:27:30;97067.81;;;4.18;100.00
69257;BME280;56376;53.356;-1.748;2022-11-21T12:30:08;97056.50;;;4.20;100.00
69257;BME280;56376;53.356;-1.748;2022-11-21T12:41:09;97041.16;;;4.17;100.00
69257;BME280;56376;53.356;-1.748;2022-11-21T12:46:35;97025.59;;;4.19;100.00
69257;BME280;56376;53.356;-1.748;2022-11-21T12:52:13;97017.69;;;4.22;100.00
69257;BME280;56376;53.356;-1.748;2022-11-21T12:55:20;97011.59;;;4.23;100.00
69257;BME280;56376;53.356;-1.748;2022-11-21T13:05:58;96984.16;;;4.20;100.00
69257;BME280;56376;53.356;-1.748;2022-11-21T13:08:30;96984.84;;;4.24;100.00
69257;BME280;56376;53.356;-1.748;2022-11-21T13:20:18;96959.50;;;4.30;100.00
69257;BME280;56376;53.356;-1.748;2022-11-21T13:27:54;96945.59;;;4.33;100.00
69257;BME280;56376;53.356;-1.748;2022-11-21T13:30:54;96934.53;;;4.31;100.00
69257;BME280;56376;53.356;-1.748;2022-11-21T13:36:11;96932.53;;;4.36;100.00
69257;BME280;56376;53.356;-1.748;2022-11-21T13:55:17;96891.41;;;4.31;100.00
69257;BME280;56376;53.356;-1.748;2022-11-21T14:01:33;96879.31;;;4.32;100.00
69257;BME280;56376;53.356;-1.748;2022-11-21T14:06:44;96874.75;;;4.37;100.00
69257;BME280;56376;53.356;-1.748;2022-11-21T14:09:25;96879.91;;;4.37;100.00
69257;BME280;56376;53.356;-1.748;2022-11-21T14:12:20;96867.81;;;4.38;100.00
69257;BME280;56376;53.356;-1.748;2022-11-21T14:14:50;96859.91;;;4.41;100.00
69257;BME280;56376;53.356;-1.748;2022-11-21T14:19:42;96840.72;;;4.45;100.00
69257;BME280;56376;53.356;-1.748;2022-11-21T14:22:41;96844.97;;;4.46;100.00
69257;BME280;56376;53.356;-1.748;2022-11-21T14:25:14;96837.22;;;4.46;100.00
69257;BME280;56376;53.356;-1.748;2022-11-21T14:27:45;96835.31;;;4.49;100.00
69257;BME280;56376;53.356;-1.748;2022-11-21T14:30:31;96828.38;;;4.50;100.00
69257;BME280;56376;53.356;-1.748;2022-11-21T14:33:34;96823.88;;;4.53;100.00
69257;BME280;56376;53.356;-1.748;2022-11-21T14:36:03;96815.22;;;4.54;100.00
69257;BME280;56376;53.356;-1.748;2022-11-21T14:38:33;96792.69;;;4.57;100.00
69257;BME280;56376;53.356;-1.748;2022-11-21T14:46:29;96783.69;;;4.64;100.00
69257;BME280;56376;53.356;-1.748;2022-11-21T14:48:55;96773.25;;;4.65;100.00
69257;BME280;56376;53.356;-1.748;2022-11-21T14:51:24;96756.91;;;4.65;100.00
69257;BME280;56376;53.356;-1.748;2022-11-21T14:53:52;96760.88;;;4.70;100.00
69257;BME280;56376;53.356;-1.748;2022-11-21T14:56:28;96767.56;;;4.74;100.00